Flight Track Log - Related Links

Times and Time Zones

All times are in EDT time to prevent confusion due to time zone crossing. See the PDT4143 flight status page for this flight to view local times or setup timezone preferences in your user account.

Time Position Orientation Groundspeed Altitude Reporting Facility
EDT Latitude Longitude Course Direction KTS MPH feet Rate Location/Type
Sun 12:59:00 PM 37.0101 -80.0333 180° South  Level FlightAware Approximate
Sun 01:00:00 PM 36.9472 -80.0318 176° South  Level FlightAware Approximate
Sun 01:01:00 PM 36.8843 -80.0270 176° South  Level FlightAware Approximate
Sun 01:02:00 PM 36.8214 -80.0221 176° South  Level FlightAware Approximate
Sun 01:03:00 PM 36.7584 -80.0173 176° South  Level FlightAware Approximate
Sun 01:04:00 PM 36.6955 -80.0153 177° South  Level FlightAware Approximate
Sun 01:05:00 PM 36.6325 -80.0114 177° South  Level FlightAware Approximate
Sun 01:06:00 PM 36.5696 -80.0075 177° South  Level FlightAware Approximate
Sun 01:07:00 PM 36.5066 -80.0035 177° South  Level FlightAware Approximate
Sun 01:08:00 PM 36.4437 -79.9992 174° South  Level FlightAware Approximate
Sun 01:09:00 PM 36.3810 -79.9914 174° South  Level FlightAware Approximate
Sun 01:10:00 PM 36.3183 -79.9835 174° South  Level FlightAware Approximate
Sun 01:11:00 PM 36.2554 -79.9797 177° South  Level FlightAware Approximate
Sun 01:12:00 PM 36.1924 -79.9760 177° South  Level FlightAware Approximate
Sun 01:13:00 PM 36.1295 -79.9723 177° South  Level FlightAware Approximate
Sun 01:14:00 PM 36.0665 -79.9686 177° South  Level FlightAware Approximate
Sun 01:15:00 PM 36.0141 -79.9948 230° Southwest  Level FlightAware Approximate
Sun 01:16:00 PM 35.9733 -80.0542 230° Southwest  Level FlightAware Approximate
Sun 01:16:31 PM 36.0592 -80.3478 227° Southwest 258 297 6,400  Level Atlanta Center
Sun 01:17:00 PM 35.9325 -80.1135 230° Southwest  Level FlightAware Approximate
Sun 01:17:14 PM 36.0136 -80.3653 197° South 254 292 6,000  Level Atlanta Center
Sun 01:18:00 PM 35.8917 -80.1728 230° Southwest  Level FlightAware Approximate
Sun 01:18:15 PM 35.9500 -80.3964 202° Southwest 244 281 6,000  Level Atlanta Center
Sun 01:19:00 PM 35.8509 -80.2320 230° Southwest  Level FlightAware Approximate
Sun 01:19:16 PM 35.8903 -80.4247 201° Southwest 237 273 6,000  Level Atlanta Center
Sun 01:20:00 PM 35.8067 -80.2875 225° Southwest  Level FlightAware Approximate
Sun 01:20:17 PM 35.8244 -80.4558 201° Southwest 234 269 6,000  Level Atlanta Center
Sun 01:21:00 PM 35.7632 -80.3436 227° Southwest  Level FlightAware Approximate
Sun 01:21:19 PM 35.7953 -80.5261 243° Southwest 229 264 6,000  Level Atlanta Center
Sun 01:22:20 PM 35.7553 -80.5867 231° Southwest 231 266 6,000  Level Atlanta Center
Sun 01:23:21 PM 35.7131 -80.6500 231° Southwest 232 267 6,000  Level Atlanta Center
Sun 01:24:22 PM 35.6714 -80.7181 233° Southwest 231 266 6,000 -98 Level Atlanta Center
Sun 01:25:23 PM 35.6631 -80.7978 263° West 236 272 5,800 -585 Descending Atlanta Center
Sun 01:26:25 PM 35.6586 -80.8744 266° West 227 261 4,800 -878 Descending Atlanta Center
Sun 01:27:26 PM 35.6583 -80.9411 270° West 186 214 4,000 -393 Descending Atlanta Center
Sun 01:28:27 PM 35.6217 -80.9731 215° Southwest 170 196 4,000  Level Atlanta Center
Sun 01:29:28 PM 35.5714 -80.9725 179° South 181 208 4,000  Level Atlanta Center
Sun 01:30:29 PM 35.5192 -80.9642 173° South 187 215 4,000  Level Atlanta Center
Sun 01:31:31 PM 35.4689 -80.9583 175° South 180 207 4,000  Level Atlanta Center
Sun 01:32:32 PM 35.4189 -80.9578 179° South 167 192 4,000 -246 Level Atlanta Center
Sun 01:33:33 PM 35.3769 -80.9542 176° South 154 177 3,500 -634 Descending Atlanta Center
Sun 01:34:35 PM 35.3331 -80.9456 171° South 161 185 2,700 -780 Descending Atlanta Center
Sun 01:35:36 PM 35.2892 -80.9447 179° South 161 185 1,900 -738 Descending Atlanta Center
Sun 01:36:37 PM 35.2472 -80.9411 176° South 133 153 1,200 -689 Descending Atlanta Center

Login

Don't have an account? Register now (free) for customized features, flight alerts, and more!